createdAt,value
2016-07-11T00:00:22.623Z,67.97
2016-07-11T00:01:22.638Z,68.06
2016-07-11T00:02:22.418Z,68.16
2016-07-11T00:03:22.639Z,68.84
2016-07-11T00:04:22.433Z,68.64
2016-07-11T00:05:22.743Z,68.44
2016-07-11T00:06:22.755Z,68.84
2016-07-11T00:07:22.604Z,68.35
2016-07-11T00:08:22.463Z,68.64
2016-07-11T00:09:22.605Z,68.64
2016-07-11T00:10:22.679Z,68.26
2016-07-11T00:11:22.676Z,67.68
2016-07-11T00:12:22.694Z,68.44
2016-07-11T00:13:22.517Z,68.35
2016-07-11T00:14:22.794Z,68.64
2016-07-11T00:15:22.534Z,68.35
2016-07-11T00:16:22.553Z,67.68
2016-07-11T00:17:22.548Z,67.97
2016-07-11T00:18:22.835Z,67.97
2016-07-11T00:19:22.732Z,67.58
2016-07-11T00:20:22.732Z,67.13
2016-07-11T00:21:22.786Z,67.33
2016-07-11T00:22:22.585Z,67.9
2016-07-11T00:23:22.579Z,67.9
2016-07-11T00:24:22.603Z,67.13
2016-07-11T00:25:22.836Z,67.1
2016-07-11T00:26:22.611Z,67.71
2016-07-11T00:27:22.851Z,67.39
2016-07-11T00:28:22.643Z,68.06
2016-07-11T00:29:22.629Z,67.33
2016-07-11T00:30:22.645Z,66.85
2016-07-11T00:31:22.672Z,67.13
2016-07-11T00:32:22.710Z,66.36
2016-07-11T00:33:22.701Z,66.75
2016-07-11T00:34:23.021Z,67.03
2016-07-11T00:35:22.784Z,67.13
2016-07-11T00:36:22.724Z,66.55
2016-07-11T00:37:22.725Z,65.88
2016-07-11T00:38:22.722Z,66.27
2016-07-11T00:39:22.913Z,66.85
2016-07-11T00:40:22.742Z,65.69
2016-07-11T00:41:23.025Z,66.17
2016-07-11T00:42:22.745Z,66.46
2016-07-11T00:43:22.746Z,65.78
2016-07-11T00:44:22.748Z,65.78
2016-07-11T00:45:22.749Z,66.94
2016-07-11T00:46:22.762Z,67.23
2016-07-11T00:47:22.900Z,66.65
2016-07-11T00:48:22.831Z,66.75
2016-07-11T00:49:22.763Z,66.75
2016-07-11T00:50:22.804Z,66.85
2016-07-11T00:51:22.799Z,67.23
2016-07-11T00:52:22.788Z,67.23
2016-07-11T00:53:22.798Z,66.65
2016-07-11T00:54:22.797Z,66.75
2016-07-11T00:55:22.794Z,66.46
2016-07-11T00:56:22.905Z,66.27
2016-07-11T00:57:22.831Z,65.98
2016-07-11T00:58:22.847Z,65.33
2016-07-11T00:59:22.838Z,66.11
2016-07-11T01:00:23.053Z,65.81
2016-07-11T01:01:22.831Z,65.14
2016-07-11T01:02:22.827Z,65.53
2016-07-11T01:03:22.862Z,66.39
2016-07-11T01:04:22.910Z,66.2
2016-07-11T01:05:23.091Z,65.53
2016-07-11T01:06:22.876Z,65.43
2016-07-11T01:07:22.883Z,66.01
2016-07-11T01:08:23.080Z,65.53
2016-07-11T01:09:22.886Z,65.91
2016-07-11T01:10:23.188Z,65.91
2016-07-11T01:11:22.890Z,65.24
2016-07-11T01:12:22.893Z,65.72
2016-07-11T01:13:23.122Z,65.14
2016-07-11T01:14:23.172Z,65.24
2016-07-11T01:15:22.911Z,65.33
2016-07-11T01:16:23.181Z,65.43
2016-07-11T01:17:22.908Z,65.43
2016-07-11T01:18:23.185Z,65.33
2016-07-11T01:19:22.914Z,65.33
2016-07-11T01:20:22.905Z,65.91
2016-07-11T01:21:22.944Z,65.33
2016-07-11T01:22:22.965Z,65.14
2016-07-11T01:23:23.141Z,65.63
2016-07-11T01:24:22.973Z,65.43
2016-07-11T01:25:22.960Z,65.24
2016-07-11T01:26:22.964Z,65.14
2016-07-11T01:27:22.973Z,65.33
2016-07-11T01:28:22.981Z,65.33
2016-07-11T01:29:23.251Z,65.05
2016-07-11T01:30:23.018Z,65.43
2016-07-11T01:31:23.000Z,64.86
2016-07-11T01:32:22.972Z,65.91
2016-07-11T01:33:23.309Z,65.24
2016-07-11T01:34:23.032Z,65.5
2016-07-11T01:35:23.331Z,66.17
2016-07-11T01:36:23.064Z,66.65
2016-07-11T01:37:23.071Z,65.5
2016-07-11T01:38:23.054Z,65.5
2016-07-11T01:39:23.365Z,66.27
2016-07-11T01:40:23.083Z,65.78
2016-07-11T01:41:23.081Z,65.98
2016-07-11T01:42:23.323Z,65.88
2016-07-11T01:43:23.124Z,65.98
2016-07-11T01:44:23.125Z,65.78
2016-07-11T01:45:23.447Z,66.27
2016-07-11T01:46:23.358Z,66.75
2016-07-11T01:47:23.377Z,66.85
2016-07-11T01:48:23.217Z,66.75
2016-07-11T01:49:23.308Z,66.75
2016-07-11T01:50:23.214Z,66.55
2016-07-11T01:51:23.398Z,67.42
2016-07-11T01:52:23.515Z,67.13
2016-07-11T01:53:23.343Z,67.71
2016-07-11T01:54:23.286Z,67.42
2016-07-11T01:55:23.281Z,67.03
2016-07-11T01:56:23.281Z,67.52
2016-07-11T01:57:23.304Z,68.29
2016-07-11T01:58:23.302Z,68.74
2016-07-11T01:59:23.307Z,68.44
2016-07-11T02:00:23.331Z,68.44
2016-07-11T02:01:23.334Z,68.64
2016-07-11T02:02:23.531Z,68.16
2016-07-11T02:03:23.395Z,67.87
2016-07-11T02:04:23.378Z,68.26
2016-07-11T02:05:23.387Z,68.44
2016-07-11T02:06:23.431Z,68.44
2016-07-11T02:07:23.428Z,68.64
2016-07-11T02:08:23.420Z,68.35
2016-07-11T02:09:23.430Z,67.97
2016-07-11T02:10:23.582Z,67.58
2016-07-11T02:11:23.623Z,67.33
2016-07-11T02:12:23.439Z,67.61
2016-07-11T02:13:23.539Z,67.52
2016-07-11T02:14:23.618Z,67.61
2016-07-11T02:15:23.474Z,67.13
2016-07-11T02:16:23.484Z,68
2016-07-11T02:17:23.479Z,68
2016-07-11T02:18:23.532Z,68
2016-07-11T02:19:23.534Z,67.42
2016-07-11T02:20:23.528Z,67.68
2016-07-11T02:21:23.572Z,68.16
2016-07-11T02:22:23.560Z,68.48
2016-07-11T02:23:23.852Z,68.38
2016-07-11T02:24:23.705Z,68.74
2016-07-11T02:25:23.563Z,68.74
2016-07-11T02:26:23.725Z,69.12
2016-07-11T02:27:23.564Z,69.89
2016-07-11T02:28:23.579Z,69.7
2016-07-11T02:29:23.579Z,70.18
2016-07-11T02:30:23.577Z,69.99
2016-07-11T02:31:23.581Z,69.12
2016-07-11T02:32:23.644Z,70.09
2016-07-11T02:33:23.567Z,70.09
2016-07-11T02:34:23.577Z,69.22
2016-07-11T02:35:23.580Z,70.24
2016-07-11T02:36:23.576Z,69.76
2016-07-11T02:37:23.629Z,70.09
2016-07-11T02:38:23.793Z,70.56
2016-07-11T02:39:23.595Z,70.62
2016-07-11T02:40:23.612Z,70.92
2016-07-11T02:41:23.621Z,70.53
2016-07-11T02:42:23.837Z,70.62
2016-07-11T02:43:23.626Z,70.34
2016-07-11T02:44:23.837Z,70.92
2016-07-11T02:45:23.937Z,70.72
2016-07-11T02:46:23.633Z,70.62
2016-07-11T02:47:23.638Z,70.92
2016-07-11T02:48:23.697Z,71.11
2016-07-11T02:49:23.670Z,70.82
2016-07-11T02:50:23.667Z,71.3
2016-07-11T02:51:23.703Z,70.82
2016-07-11T02:52:23.702Z,71.11
2016-07-11T02:53:23.762Z,71.11
2016-07-11T02:54:23.746Z,70.82
2016-07-11T02:55:23.737Z,70.62
2016-07-11T02:56:23.954Z,70.43
2016-07-11T02:57:23.777Z,71.69
2016-07-11T02:58:24.044Z,71.3
2016-07-11T02:59:23.806Z,71.69
2016-07-11T03:00:23.810Z,71.3
2016-07-11T03:01:24.093Z,71.4
2016-07-11T03:02:23.813Z,72.07
2016-07-11T03:03:23.834Z,72.13
2016-07-11T03:04:24.127Z,71.84
2016-07-11T03:05:23.906Z,71.88
2016-07-11T03:06:23.837Z,72.36
2016-07-11T03:07:24.143Z,72.36
2016-07-11T03:08:23.860Z,71.49
2016-07-11T03:09:23.930Z,71.4
2016-07-11T03:10:23.914Z,71.2
2016-07-11T03:11:23.912Z,70.82
2016-07-11T03:12:23.930Z,70.82
2016-07-11T03:13:23.981Z,70.34
2016-07-11T03:14:24.136Z,70.53
2016-07-11T03:15:24.244Z,71.2
2016-07-11T03:16:24.269Z,70.82
2016-07-11T03:17:23.984Z,71.4
2016-07-11T03:18:24.002Z,71.78
2016-07-11T03:19:24.013Z,72.26
2016-07-11T03:20:24.009Z,72.84
2016-07-11T03:21:24.062Z,71.88
2016-07-11T03:22:24.225Z,71.78
2016-07-11T03:23:24.165Z,71.4
2016-07-11T03:24:24.102Z,71.3
2016-07-11T03:25:24.112Z,71.4
2016-07-11T03:26:24.169Z,71.3
2016-07-11T03:27:24.153Z,71.2
2016-07-11T03:28:24.167Z,71.11
2016-07-11T03:29:24.181Z,71.69
2016-07-11T03:30:24.388Z,71.4
2016-07-11T03:31:24.204Z,71.2
2016-07-11T03:32:24.200Z,70.82
2016-07-11T03:33:24.254Z,70.72
2016-07-11T03:34:24.263Z,70.72
2016-07-11T03:35:24.259Z,70.62
2016-07-11T03:36:24.539Z,71.11
2016-07-11T03:37:24.310Z,70.72
2016-07-11T03:38:24.501Z,70.18
2016-07-11T03:39:24.322Z,70.37
2016-07-11T03:40:24.319Z,71.04
2016-07-11T03:41:24.360Z,70.37
2016-07-11T03:42:24.548Z,70.47
2016-07-11T03:43:24.370Z,71.04
2016-07-11T03:44:24.362Z,70.76
2016-07-11T03:45:24.406Z,70.28
2016-07-11T03:46:24.605Z,70.09
2016-07-11T03:47:24.495Z,70.28
2016-07-11T03:48:24.454Z,70.66
2016-07-11T03:49:24.737Z,70.66
2016-07-11T03:50:24.467Z,70.18
2016-07-11T03:51:24.512Z,70.76
2016-07-11T03:52:24.513Z,70.86
2016-07-11T03:53:24.541Z,70.21
2016-07-11T03:54:24.557Z,70.89
2016-07-11T03:55:24.563Z,70.6
2016-07-11T03:56:24.551Z,69.22
2016-07-11T03:57:24.618Z,69.45
2016-07-11T03:58:24.616Z,68.96
2016-07-11T03:59:24.608Z,68.87
2016-07-11T04:00:24.624Z,68.96
2016-07-11T04:01:24.630Z,68.87
2016-07-11T04:02:24.682Z,68.48
2016-07-11T04:03:24.634Z,68.58
2016-07-11T04:04:24.826Z,68.77
2016-07-11T04:05:24.661Z,69.06
2016-07-11T04:06:24.637Z,68.48
2016-07-11T04:07:24.927Z,68
2016-07-11T04:08:24.822Z,68.1
2016-07-11T04:09:24.639Z,68.68
2016-07-11T04:10:24.949Z,69.25
2016-07-11T04:11:24.643Z,69.06
2016-07-11T04:12:24.939Z,68
2016-07-11T04:13:24.637Z,67.61
2016-07-11T04:14:24.826Z,67.9
2016-07-11T04:15:24.653Z,68
2016-07-11T04:16:24.646Z,68.1
2016-07-11T04:17:24.924Z,68
2016-07-11T04:18:24.661Z,69.06
2016-07-11T04:19:24.655Z,69.15
2016-07-11T04:20:24.656Z,69.15
2016-07-11T04:21:24.675Z,68.77
2016-07-11T04:22:24.957Z,69.45
2016-07-11T04:23:24.868Z,69.93
2016-07-11T04:24:24.716Z,69.73
2016-07-11T04:25:24.712Z,69.45
2016-07-11T04:26:24.746Z,69.45
2016-07-11T04:27:24.745Z,69.45
2016-07-11T04:28:24.739Z,69.83
2016-07-11T04:29:24.736Z,70.31
2016-07-11T04:30:25.049Z,69.93
2016-07-11T04:31:24.919Z,69.83
2016-07-11T04:32:24.739Z,70.12
2016-07-11T04:33:24.795Z,70.02
2016-07-11T04:34:24.796Z,69.83
2016-07-11T04:35:24.770Z,69.15
2016-07-11T04:36:24.794Z,69.35
2016-07-11T04:37:24.798Z,69.06
2016-07-11T04:38:24.796Z,68.96
2016-07-11T04:39:24.835Z,68.87
2016-07-11T04:40:24.846Z,68.48
2016-07-11T04:41:24.850Z,68.58
2016-07-11T04:42:24.858Z,68.38
2016-07-11T04:43:24.860Z,68.29
2016-07-11T04:44:24.862Z,68.19
2016-07-11T04:45:25.135Z,68.1
2016-07-11T04:46:24.872Z,68.61
2016-07-11T04:47:25.046Z,68.48
2016-07-11T04:48:24.890Z,67.74
2016-07-11T04:49:24.867Z,68.13
2016-07-11T04:50:24.865Z,68.42
2016-07-11T04:51:24.860Z,68.23
2016-07-11T04:52:24.864Z,67.94
2016-07-11T04:53:25.074Z,68.04
2016-07-11T04:54:24.859Z,68.32
2016-07-11T04:55:24.870Z,68.71
2016-07-11T04:56:24.872Z,68.32
2016-07-11T04:57:24.871Z,68.52
2016-07-11T04:58:24.877Z,68.52
2016-07-11T04:59:24.887Z,67.84
2016-07-11T05:00:24.875Z,67.46
2016-07-11T05:01:24.886Z,67.07
2016-07-11T05:02:24.882Z,67.36
2016-07-11T05:03:25.019Z,66.97
2016-07-11T05:04:24.892Z,67.16
2016-07-11T05:05:24.885Z,67.26
2016-07-11T05:06:24.879Z,66.78
2016-07-11T05:07:24.998Z,66.49
2016-07-11T05:08:24.882Z,66.82
2016-07-11T05:09:25.010Z,66.14
2016-07-11T05:10:24.884Z,66.04
2016-07-11T05:11:25.010Z,65.75
2016-07-11T05:12:24.880Z,65.85
2016-07-11T05:13:24.935Z,65.95
2016-07-11T05:14:24.895Z,65.47
2016-07-11T05:15:24.894Z,66.27
2016-07-11T05:16:24.894Z,66.56
2016-07-11T05:17:24.904Z,66.85
2016-07-11T05:18:25.003Z,66.52
2016-07-11T05:19:24.888Z,66.62
2016-07-11T05:20:24.894Z,66.14
2016-07-11T05:21:24.936Z,66.62
2016-07-11T05:22:25.007Z,65.85
2016-07-11T05:23:24.930Z,66.33
2016-07-11T05:24:24.895Z,65.85
2016-07-11T05:25:24.899Z,66.04
2016-07-11T05:26:24.908Z,66.14
2016-07-11T05:27:25.190Z,65.95
2016-07-11T05:28:24.909Z,65.37
2016-07-11T05:29:24.904Z,65.85
2016-07-11T05:30:25.011Z,65.01
2016-07-11T05:31:24.918Z,65.2
2016-07-11T05:32:24.915Z,65.59
2016-07-11T05:33:24.924Z,65.5
2016-07-11T05:34:25.221Z,65.88
2016-07-11T05:35:24.930Z,65.69
2016-07-11T05:36:24.930Z,65.59
2016-07-11T05:37:24.931Z,65.5
2016-07-11T05:38:24.935Z,65.2
2016-07-11T05:39:24.922Z,65.01
2016-07-11T05:40:24.930Z,65.3
2016-07-11T05:41:24.913Z,65.88
2016-07-11T05:42:24.924Z,65.4
2016-07-11T05:43:25.239Z,65.69
2016-07-11T05:44:25.005Z,65.2
2016-07-11T05:45:24.941Z,64.66
2016-07-11T05:46:24.933Z,64.82
2016-07-11T05:47:24.946Z,64.92
2016-07-11T05:48:24.948Z,65.5
2016-07-11T05:49:24.941Z,64.47
2016-07-11T05:50:24.947Z,65.11
2016-07-11T05:51:24.953Z,65.3
2016-07-11T05:52:24.956Z,65.69
2016-07-11T05:53:24.957Z,64.86
2016-07-11T05:54:25.152Z,64.95
2016-07-11T05:55:24.964Z,64.66
2016-07-11T05:56:24.957Z,64.66
2016-07-11T05:57:24.964Z,65.05
2016-07-11T05:58:25.283Z,65.05
2016-07-11T05:59:24.962Z,63.6
2016-07-11T06:00:24.966Z,63.7
2016-07-11T06:01:24.962Z,62.34
2016-07-11T06:02:24.967Z,62.54
2016-07-11T06:03:25.078Z,62.54
2016-07-11T06:04:25.074Z,63.89
2016-07-11T06:05:25.085Z,63.24
2016-07-11T06:06:24.977Z,63.02
2016-07-11T06:07:25.132Z,62.76
2016-07-11T06:08:25.082Z,63.6
2016-07-11T06:09:25.283Z,62.66
2016-07-11T06:10:25.290Z,62.73
2016-07-11T06:11:25.341Z,62.76
2016-07-11T06:12:24.991Z,62.18
2016-07-11T06:13:25.041Z,62.08
2016-07-11T06:14:25.319Z,61.99
2016-07-11T06:15:25.204Z,62.18
2016-07-11T06:16:24.999Z,62.37
2016-07-11T06:17:25.002Z,62.76
2016-07-11T06:18:25.011Z,63.05
2016-07-11T06:19:25.197Z,63.05
2016-07-11T06:20:25.169Z,62.28
2016-07-11T06:21:25.006Z,62.28
2016-07-11T06:22:25.020Z,62.66
2016-07-11T06:23:25.292Z,63.05
2016-07-11T06:24:25.019Z,62.86
2016-07-11T06:25:25.033Z,62.08
2016-07-11T06:26:25.020Z,62.66
2016-07-11T06:27:25.021Z,61.41
2016-07-11T06:28:25.023Z,61.22
2016-07-11T06:29:25.031Z,61.02
2016-07-11T06:30:25.035Z,61.89
2016-07-11T06:31:25.321Z,62.4
2016-07-11T06:32:25.247Z,62.6
2016-07-11T06:33:25.047Z,62.21
2016-07-11T06:34:25.266Z,62.21
2016-07-11T06:35:25.236Z,62.6
2016-07-11T06:36:25.338Z,62.12
2016-07-11T06:37:25.041Z,60.67
2016-07-11T06:38:25.049Z,60.09
2016-07-11T06:39:25.055Z,60.31
2016-07-11T06:40:25.043Z,60.09
2016-07-11T06:41:25.058Z,59.6
2016-07-11T06:42:25.350Z,59.83
2016-07-11T06:43:25.057Z,59.73
2016-07-11T06:44:25.355Z,59.92
2016-07-11T06:45:25.064Z,59.63
2016-07-11T06:46:25.066Z,59.76
2016-07-11T06:47:25.072Z,59.66
2016-07-11T06:48:25.079Z,59.66
2016-07-11T06:49:25.089Z,58.82
2016-07-11T06:50:25.093Z,57.08
2016-07-11T06:51:25.102Z,57.66
2016-07-11T06:52:25.161Z,55.94
2016-07-11T06:53:25.082Z,55.85
2016-07-11T06:54:25.368Z,56.26
2016-07-11T06:55:25.249Z,55.1
2016-07-11T06:56:25.301Z,54.52
2016-07-11T06:57:25.308Z,53.39
2016-07-11T06:58:25.398Z,52.34
2016-07-11T06:59:25.118Z,52.95
2016-07-11T07:00:25.286Z,52.5
2016-07-11T07:01:25.118Z,52.13
2016-07-11T07:02:25.131Z,49.76
2016-07-11T07:03:25.131Z,47.52
2016-07-11T07:04:25.134Z,46.86
2016-07-11T07:05:25.425Z,45.23
2016-07-11T07:06:25.155Z,43.6
2016-07-11T07:07:25.239Z,46.05
2016-07-11T07:08:25.181Z,44.79
2016-07-11T07:09:25.168Z,45.08
2016-07-11T07:10:25.178Z,46.27
2016-07-11T07:11:25.166Z,43.85
2016-07-11T07:12:25.454Z,44.15
2016-07-11T07:13:25.250Z,42.12
2016-07-11T07:14:25.210Z,40.95
2016-07-11T07:15:25.189Z,40.66
2016-07-11T07:16:25.478Z,41.73
2016-07-11T07:17:25.205Z,39.88
2016-07-11T07:18:25.233Z,39.7
2016-07-11T07:19:25.234Z,39.51
2016-07-11T07:20:25.231Z,39.53
2016-07-11T07:21:25.260Z,38.09
2016-07-11T07:22:25.247Z,37.6
2016-07-11T07:23:25.246Z,38.48
2016-07-11T07:24:25.252Z,39.16
2016-07-11T07:25:25.489Z,37.99
2016-07-11T07:26:25.265Z,39.23
2016-07-11T07:27:25.554Z,40.88
2016-07-11T07:28:25.389Z,41.05
2016-07-11T07:29:25.290Z,39.88
2016-07-11T07:30:25.296Z,41.71
2016-07-11T07:31:25.318Z,40.62
2016-07-11T07:32:25.610Z,42.28
2016-07-11T07:33:25.323Z,42.25
2016-07-11T07:34:25.332Z,40.78
2016-07-11T07:35:25.333Z,41.75
2016-07-11T07:36:25.337Z,42.9
2016-07-11T07:37:25.350Z,43.48
2016-07-11T07:38:25.636Z,45.04
2016-07-11T07:39:25.426Z,45.01
2016-07-11T07:40:25.366Z,44.82
2016-07-11T07:41:25.376Z,44.53
2016-07-11T07:42:25.453Z,45.11
2016-07-11T07:43:25.392Z,44.53
2016-07-11T07:44:25.504Z,44.53
2016-07-11T07:45:25.404Z,44.53
2016-07-11T07:46:25.418Z,44.43
2016-07-11T07:47:25.419Z,46.57
2016-07-11T07:48:25.429Z,46.37
2016-07-11T07:49:25.430Z,46.96
2016-07-11T07:50:25.466Z,47.05
2016-07-11T07:51:25.737Z,46.98
2016-07-11T07:52:25.732Z,47.27
2016-07-11T07:53:25.732Z,45.64
2016-07-11T07:54:25.739Z,45.15
2016-07-11T07:55:25.758Z,44.67
2016-07-11T07:56:25.477Z,43.3
2016-07-11T07:57:25.667Z,43.89
2016-07-11T07:58:25.489Z,43.58
2016-07-11T07:59:25.494Z,43.19
2016-07-11T08:00:25.502Z,44.26
2016-07-11T08:01:25.810Z,43.79
2016-07-11T08:02:25.520Z,42.14
2016-07-11T08:03:25.570Z,41.96
2016-07-11T08:04:25.568Z,42.55
2016-07-11T08:05:25.572Z,43.52
2016-07-11T08:06:25.586Z,42.35
2016-07-11T08:07:25.606Z,43.71
2016-07-11T08:08:25.607Z,43.23
2016-07-11T08:09:25.619Z,44.49
2016-07-11T08:10:25.609Z,43.64
2016-07-11T08:11:25.626Z,38.9
2016-07-11T08:12:25.821Z,38.63
2016-07-11T08:13:25.897Z,40.01
2016-07-11T08:14:25.638Z,40.63
2016-07-11T08:15:25.649Z,36.83
2016-07-11T08:16:25.663Z,36.46
2016-07-11T08:17:25.674Z,35.58
2016-07-11T08:18:25.667Z,35.68
2016-07-11T08:19:25.706Z,33.94
2016-07-11T08:20:25.960Z,36.36
2016-07-11T08:21:25.700Z,35.19
2016-07-11T08:22:25.700Z,36.08
2016-07-11T08:23:25.993Z,34.52
2016-07-11T08:24:25.725Z,33.94
2016-07-11T08:25:25.732Z,33.94
2016-07-11T08:26:25.727Z,32.95
2016-07-11T08:27:25.735Z,33.74
2016-07-11T08:28:25.739Z,33.82
2016-07-11T08:29:25.749Z,36.26
2016-07-11T08:30:25.808Z,33.61
2016-07-11T08:31:25.799Z,35.85
2016-07-11T08:32:25.778Z,36.63
2016-07-11T08:33:25.802Z,38.18
2016-07-11T08:34:26.006Z,39.37
2016-07-11T08:35:25.798Z,35.25
2016-07-11T08:36:25.809Z,37.99
2016-07-11T08:37:25.819Z,36.33
2016-07-11T08:38:25.823Z,36.7
2016-07-11T08:39:25.819Z,36.29
2016-07-11T08:40:25.936Z,36.49
2016-07-11T08:41:25.833Z,37.83
2016-07-11T08:42:25.848Z,38.9
2016-07-11T08:43:26.060Z,39.96
2016-07-11T08:44:25.874Z,39.67
2016-07-11T08:45:25.863Z,38.69
2016-07-11T08:46:26.120Z,40.72
2016-07-11T08:47:25.892Z,40.42
2016-07-11T08:48:25.917Z,41.19
2016-07-11T08:49:26.175Z,38.56
2016-07-11T08:50:25.964Z,43.52
2016-07-11T08:51:26.100Z,39.24
2016-07-11T08:52:26.123Z,41.57
2016-07-11T08:53:25.931Z,40.11
2016-07-11T08:54:25.933Z,40.29
2016-07-11T08:55:25.966Z,39.22
2016-07-11T08:56:25.974Z,40.68
2016-07-11T08:57:25.945Z,39.51
2016-07-11T08:58:25.977Z,39.12
2016-07-11T08:59:26.263Z,39.39
2016-07-11T09:00:26.311Z,38.62
2016-07-11T09:01:25.978Z,40.47
2016-07-11T09:02:25.995Z,42.99
2016-07-11T09:03:25.983Z,43.29
2016-07-11T09:04:25.983Z,43.5
2016-07-11T09:05:25.989Z,42.14
2016-07-11T09:06:25.996Z,42.24
2016-07-11T09:07:26.216Z,43.01
2016-07-11T09:08:26.024Z,44.57
2016-07-11T09:09:26.291Z,43.5
2016-07-11T09:10:26.312Z,42.35
2016-07-11T09:11:26.023Z,41.28
2016-07-11T09:12:26.302Z,38.07
2016-07-11T09:13:26.098Z,38.75
2016-07-11T09:14:26.169Z,41.28
2016-07-11T09:15:26.362Z,39.62
2016-07-11T09:16:26.068Z,38.07
2016-07-11T09:17:26.263Z,39.22
2016-07-11T09:18:26.356Z,39.61
2016-07-11T09:19:26.366Z,40.97
2016-07-11T09:20:26.094Z,40.78
2016-07-11T09:21:26.175Z,41.16
2016-07-11T09:22:26.300Z,42.14
2016-07-11T09:23:26.112Z,42.14
2016-07-11T09:24:26.322Z,40.88
2016-07-11T09:25:26.114Z,42.04
2016-07-11T09:26:26.117Z,37.76
2016-07-11T09:27:26.335Z,40.17
2016-07-11T09:28:26.141Z,41.05
2016-07-11T09:29:26.140Z,40.85
2016-07-11T09:30:26.140Z,41.93
2016-07-11T09:31:26.435Z,37.95
2016-07-11T09:32:26.245Z,40.66
2016-07-11T09:33:26.353Z,39
2016-07-11T09:34:26.167Z,39.88
2016-07-11T09:35:26.178Z,40.88
2016-07-11T09:36:26.461Z,43.4
2016-07-11T09:37:26.310Z,43.4
2016-07-11T09:38:26.262Z,42.33
2016-07-11T09:39:26.198Z,38.15
2016-07-11T09:40:26.201Z,39.9
2016-07-11T09:41:26.365Z,40.78
2016-07-11T09:42:26.225Z,42.24
2016-07-11T09:43:26.225Z,41.55
2016-07-11T09:44:26.514Z,42.43
2016-07-11T09:45:26.282Z,39.22
2016-07-11T09:46:26.214Z,40.48
2016-07-11T09:47:26.344Z,39.9
2016-07-11T09:48:26.223Z,40.09
2016-07-11T09:49:26.394Z,39.98
2016-07-11T09:50:26.241Z,40.66
2016-07-11T09:51:26.243Z,39.98
2016-07-11T09:52:26.312Z,39
2016-07-11T09:53:26.416Z,40.37
2016-07-11T09:54:26.466Z,39.59
2016-07-11T09:55:26.316Z,40.75
2016-07-11T09:56:26.274Z,40.17
2016-07-11T09:57:26.286Z,39.39
2016-07-11T09:58:26.289Z,40.27
2016-07-11T09:59:26.294Z,39
2016-07-11T10:00:26.315Z,40.27
2016-07-11T10:01:26.311Z,38.13
2016-07-11T10:02:26.315Z,39.31
2016-07-11T10:03:26.322Z,38.44
2016-07-11T10:04:26.620Z,40.97
2016-07-11T10:05:26.398Z,41.16
2016-07-11T10:06:26.353Z,38.64
2016-07-11T10:07:26.384Z,39.2
2016-07-11T10:08:26.384Z,40.08
2016-07-11T10:09:26.380Z,41.24
2016-07-11T10:10:26.391Z,42.33
2016-07-11T10:11:26.403Z,40.68
2016-07-11T10:12:26.398Z,41.06
2016-07-11T10:13:26.543Z,41.94
2016-07-11T10:14:26.681Z,43.01
2016-07-11T10:15:26.427Z,42.35
2016-07-11T10:16:26.415Z,40.19
2016-07-11T10:17:26.407Z,40.88
2016-07-11T10:18:26.409Z,42.14
2016-07-11T10:19:26.418Z,44.57
2016-07-11T10:20:26.425Z,43.11
2016-07-11T10:21:26.443Z,42.53
2016-07-11T10:22:26.466Z,43.79
2016-07-11T10:23:26.476Z,42.63
2016-07-11T10:24:26.468Z,41.85
2016-07-11T10:25:26.483Z,43.01
2016-07-11T10:26:26.486Z,43.79
2016-07-11T10:27:26.771Z,42.43
2016-07-11T10:28:26.472Z,42.63
2016-07-11T10:29:26.500Z,43.6
2016-07-11T10:30:26.510Z,41.26
2016-07-11T10:31:27.235Z,43.79
2016-07-11T10:32:26.796Z,42.24
2016-07-11T10:33:26.497Z,40.09
2016-07-11T10:34:26.521Z,39.51
2016-07-11T10:35:26.552Z,40.75
2016-07-11T10:36:26.549Z,40.75
2016-07-11T10:37:26.522Z,40.27
2016-07-11T10:38:26.534Z,40.66
2016-07-11T10:39:27.249Z,38.81
2016-07-11T10:40:26.538Z,40.54
2016-07-11T10:41:26.539Z,42.1
2016-07-11T10:42:26.583Z,42.5
2016-07-11T10:43:26.553Z,42.02
2016-07-11T10:44:26.581Z,40.19
2016-07-11T10:45:26.585Z,38.64
2016-07-11T10:46:26.585Z,41.46
2016-07-11T10:47:26.584Z,42.06
2016-07-11T10:48:26.615Z,38.56
2016-07-11T10:49:26.619Z,40.5
2016-07-11T10:50:26.615Z,36.53
2016-07-11T10:51:26.641Z,40.91
2016-07-11T10:52:26.754Z,37.7
2016-07-11T10:53:26.629Z,39.36
2016-07-11T10:54:26.625Z,39.16
2016-07-11T10:55:26.638Z,39.55
2016-07-11T10:56:26.662Z,40.52
2016-07-11T10:57:26.663Z,39.14
2016-07-11T10:58:26.670Z,36.71
2016-07-11T10:59:26.801Z,36.51
2016-07-11T11:00:26.674Z,34.25
2016-07-11T11:01:26.669Z,35.52
2016-07-11T11:02:26.678Z,36.4
2016-07-11T11:03:26.690Z,38.64
2016-07-11T11:04:26.693Z,37.08
2016-07-11T11:05:26.711Z,37.85
2016-07-11T11:06:26.710Z,35.03
2016-07-11T11:07:26.984Z,35.13
2016-07-11T11:08:26.719Z,35.52
2016-07-11T11:09:26.726Z,35.33
2016-07-11T11:10:26.729Z,35.13
2016-07-11T11:11:26.766Z,34.94
2016-07-11T11:12:27.058Z,33.28
2016-07-11T11:13:26.792Z,34.06
2016-07-11T11:14:26.756Z,35.33
2016-07-11T11:15:26.827Z,35.52
2016-07-11T11:16:26.764Z,36.59
2016-07-11T11:17:26.813Z,38.64
2016-07-11T11:18:26.828Z,38.54
2016-07-11T11:19:26.811Z,39.31
2016-07-11T11:20:26.805Z,38.93
2016-07-11T11:21:26.795Z,37.97
2016-07-11T11:22:26.804Z,37.29
2016-07-11T11:23:27.806Z,37.37
2016-07-11T11:24:26.968Z,37.18
2016-07-11T11:25:26.823Z,38.54
2016-07-11T11:26:26.837Z,39.8
2016-07-11T11:27:26.829Z,39.49
2016-07-11T11:28:26.852Z,38.91
2016-07-11T11:29:26.889Z,37.64
2016-07-11T11:30:26.863Z,37.84
2016-07-11T11:31:26.856Z,39.31
2016-07-11T11:32:26.869Z,42.43
2016-07-11T11:33:26.951Z,37.27
2016-07-11T11:34:27.166Z,37.08
2016-07-11T11:35:26.908Z,36.49
2016-07-11T11:36:27.103Z,36.3
2016-07-11T11:37:27.198Z,35.33
2016-07-11T11:38:27.190Z,36.59
2016-07-11T11:39:27.027Z,37.76
2016-07-11T11:40:26.991Z,37.27
2016-07-11T11:41:26.994Z,36.57
2016-07-11T11:42:26.926Z,36.08
2016-07-11T11:43:26.932Z,36.87
2016-07-11T11:44:26.934Z,37.93
2016-07-11T11:45:26.954Z,39.78
2016-07-11T11:46:26.954Z,38.62
2016-07-11T11:47:27.365Z,38.32
2016-07-11T11:48:26.969Z,38.81
2016-07-11T11:49:27.088Z,39.2
2016-07-11T11:50:27.062Z,38.32
2016-07-11T11:51:26.988Z,39.51
2016-07-11T11:52:27.004Z,39.12
2016-07-11T11:53:26.998Z,38.73
2016-07-11T11:54:28.011Z,39.92
2016-07-11T11:55:27.056Z,38.56
2016-07-11T11:56:27.049Z,38.05
2016-07-11T11:57:27.046Z,37.56
2016-07-11T11:58:27.035Z,39.03
2016-07-11T11:59:27.036Z,40.09
2016-07-11T12:00:27.063Z,35.33
2016-07-11T12:01:27.076Z,38.65
2016-07-11T12:02:27.090Z,36.61
2016-07-11T12:03:27.380Z,38.95
2016-07-11T12:04:27.229Z,37.7
2016-07-11T12:05:27.065Z,37.5
2016-07-11T12:06:27.076Z,34.97
2016-07-11T12:07:27.080Z,36.63
2016-07-11T12:08:27.093Z,36.72
2016-07-11T12:09:27.119Z,36.35
2016-07-11T12:10:27.107Z,31.67
2016-07-11T12:11:27.222Z,32.16
2016-07-11T12:12:27.113Z,33.41
2016-07-11T12:13:27.184Z,33.02
2016-07-11T12:14:27.132Z,32.73
2016-07-11T12:15:27.172Z,36.24
2016-07-11T12:16:27.162Z,36.43
2016-07-11T12:17:27.153Z,37.79
2016-07-11T12:18:27.174Z,37.99
2016-07-11T12:19:27.210Z,36.74
2016-07-11T12:20:27.197Z,35.67
2016-07-11T12:21:27.199Z,35.28
2016-07-11T12:22:27.226Z,34.99
2016-07-11T12:23:27.230Z,34.5
2016-07-11T12:24:27.228Z,34.79
2016-07-11T12:25:27.248Z,36.65
2016-07-11T12:26:27.242Z,36.45
2016-07-11T12:27:27.220Z,36.55
2016-07-11T12:28:27.229Z,37.23
2016-07-11T12:29:27.241Z,34.99
2016-07-11T12:30:27.256Z,34.89
2016-07-11T12:31:27.261Z,35.57
2016-07-11T12:32:27.263Z,36.65
2016-07-11T12:33:27.281Z,34.69
2016-07-11T12:34:27.487Z,35.08
2016-07-11T12:35:27.283Z,37.43
2016-07-11T12:36:27.296Z,36.55
2016-07-11T12:37:27.316Z,36.33
2016-07-11T12:38:27.299Z,35.96
2016-07-11T12:39:27.321Z,37.62
2016-07-11T12:40:27.312Z,33.7
2016-07-11T12:41:27.333Z,35.36
2016-07-11T12:42:27.489Z,36.53
2016-07-11T12:43:27.341Z,36.63
2016-07-11T12:44:27.379Z,36.63
2016-07-11T12:45:27.353Z,37.79
2016-07-11T12:46:27.375Z,37.79
2016-07-11T12:47:27.375Z,35.16
2016-07-11T12:48:27.385Z,36.61
2016-07-11T12:49:27.423Z,37.87
2016-07-11T12:50:27.414Z,40.41
2016-07-11T12:51:27.393Z,37.29
2016-07-11T12:52:27.398Z,38.65
2016-07-11T12:53:27.420Z,37.99
2016-07-11T12:54:27.443Z,34.29
2016-07-11T12:55:27.433Z,35.94
2016-07-11T12:56:27.438Z,35.55